createdAt,value
2018-12-06T00:00:40.015Z,89.25
2018-12-06T00:04:46.199Z,89.70
2018-12-06T00:08:52.191Z,89.83
2018-12-06T00:12:57.815Z,90.41
2018-12-06T00:17:03.767Z,90.95
2018-12-06T00:21:09.804Z,90.69
2018-12-06T00:25:15.748Z,92.05
2018-12-06T00:29:21.623Z,91.89
2018-12-06T00:33:27.634Z,92.25
2018-12-06T00:37:33.631Z,92.53
2018-12-06T00:41:40.934Z,93.43
2018-12-06T00:45:47.681Z,93.07
2018-12-06T00:49:55.753Z,93.08
2018-12-06T00:54:02.622Z,93.12
2018-12-06T00:58:12.987Z,92.99
2018-12-06T01:02:19.140Z,93.61
2018-12-06T01:06:25.157Z,93.25
2018-12-06T01:10:31.463Z,93.64
2018-12-06T01:14:41.774Z,93.64
2018-12-06T01:18:47.816Z,93.61
2018-12-06T01:22:53.999Z,94.43
2018-12-06T01:26:59.837Z,94.31
2018-12-06T01:31:06.128Z,94.55
2018-12-06T01:35:12.286Z,94.23
2018-12-06T01:39:18.720Z,94.19
2018-12-06T01:43:25.673Z,94.34
2018-12-06T01:47:32.634Z,95.02
2018-12-06T01:51:38.607Z,95.00
2018-12-06T01:55:44.785Z,95.16
2018-12-06T01:59:51.037Z,95.64
2018-12-06T02:03:57.768Z,95.85
2018-12-06T02:08:03.803Z,95.65
2018-12-06T02:12:09.696Z,95.72
2018-12-06T02:16:15.866Z,95.55
2018-12-06T02:20:21.528Z,95.73
2018-12-06T02:24:27.360Z,95.72
2018-12-06T02:28:33.960Z,95.17
2018-12-06T02:32:41.874Z,95.00
2018-12-06T02:36:47.844Z,95.02
2018-12-06T02:40:53.721Z,94.93
2018-12-06T02:45:06.230Z,95.17
2018-12-06T02:49:12.192Z,95.14
2018-12-06T02:53:18.094Z,95.63
2018-12-06T02:57:24.230Z,94.92
2018-12-06T03:01:30.311Z,95.06
2018-12-06T03:05:36.517Z,95.45
2018-12-06T03:09:46.249Z,95.47
2018-12-06T03:13:52.496Z,95.62
2018-12-06T03:17:58.403Z,95.43
2018-12-06T03:22:04.565Z,95.21
2018-12-06T03:26:10.816Z,95.58
2018-12-06T03:30:16.869Z,95.38
2018-12-06T03:34:23.252Z,96.01
2018-12-06T03:38:29.752Z,96.28
2018-12-06T03:42:35.666Z,96.80
2018-12-06T03:46:41.730Z,96.14
2018-12-06T03:50:47.642Z,96.63
2018-12-06T03:54:54.620Z,96.16
2018-12-06T03:59:00.573Z,96.21
2018-12-06T04:03:06.658Z,96.56
2018-12-06T04:07:12.477Z,96.19
2018-12-06T04:11:18.179Z,96.00
2018-12-06T04:15:24.154Z,96.41
2018-12-06T04:19:30.299Z,96.42
2018-12-06T04:23:36.296Z,96.15
2018-12-06T04:27:42.293Z,96.19
2018-12-06T04:31:48.332Z,96.57
2018-12-06T04:35:54.233Z,96.11
2018-12-06T04:40:00.316Z,96.16
2018-12-06T04:44:06.576Z,95.79
2018-12-06T04:48:21.498Z,96.12
2018-12-06T04:52:21.611Z,96.15
2018-12-06T04:56:27.691Z,96.27
2018-12-06T05:00:33.833Z,96.61
2018-12-06T05:04:41.393Z,96.34
2018-12-06T05:08:48.652Z,96.60
2018-12-06T05:12:54.432Z,96.62
2018-12-06T05:17:01.049Z,96.65
2018-12-06T05:21:07.255Z,96.70
2018-12-06T05:25:13.667Z,96.98
2018-12-06T05:29:20.219Z,96.72
2018-12-06T05:33:27.348Z,96.77
2018-12-06T05:37:33.453Z,96.74
2018-12-06T05:41:39.519Z,97.12
2018-12-06T05:45:46.633Z,98.20
2018-12-06T05:49:52.831Z,100.00
2018-12-06T05:53:59.166Z,99.38
2018-12-06T05:58:06.063Z,98.14
2018-12-06T06:02:11.968Z,97.70
2018-12-06T06:06:19.190Z,97.55
2018-12-06T06:10:25.398Z,97.92
2018-12-06T06:14:31.434Z,97.40
2018-12-06T06:18:38.436Z,97.69
2018-12-06T06:22:44.601Z,97.80
2018-12-06T06:26:50.944Z,97.86
2018-12-06T06:30:57.008Z,98.16
2018-12-06T06:35:02.999Z,98.15
2018-12-06T06:39:10.336Z,97.71
2018-12-06T06:43:17.803Z,97.32
2018-12-06T06:47:24.014Z,97.91
2018-12-06T06:51:30.023Z,98.09
2018-12-06T06:55:35.980Z,98.15
2018-12-06T06:59:42.360Z,98.36
2018-12-06T07:03:48.601Z,98.14
2018-12-06T07:07:54.794Z,97.96
2018-12-06T07:12:00.880Z,97.74
2018-12-06T07:16:06.931Z,97.64
2018-12-06T07:20:13.140Z,98.21
2018-12-06T07:24:19.594Z,98.17
2018-12-06T07:28:25.851Z,98.21
2018-12-06T07:32:31.789Z,98.10
2018-12-06T07:36:38.699Z,98.32
2018-12-06T07:40:44.780Z,98.28
2018-12-06T07:44:50.952Z,98.68
2018-12-06T07:48:56.933Z,98.47
2018-12-06T07:53:03.004Z,98.58
2018-12-06T07:57:09.046Z,99.01
2018-12-06T08:01:14.739Z,99.05
2018-12-06T08:05:20.391Z,99.11
2018-12-06T08:09:25.980Z,99.46
2018-12-06T08:13:31.592Z,99.35
2018-12-06T08:17:37.361Z,99.72
2018-12-06T08:21:43.145Z,99.30
2018-12-06T08:25:49.180Z,99.52
2018-12-06T08:29:54.991Z,99.59
2018-12-06T08:34:06.064Z,99.67
2018-12-06T08:38:08.245Z,99.82
2018-12-06T08:42:13.919Z,100.00
2018-12-06T08:46:19.858Z,100.00
2018-12-06T08:50:25.388Z,99.69
2018-12-06T08:54:30.960Z,99.57
2018-12-06T08:58:36.525Z,99.54
2018-12-06T09:02:43.102Z,99.65
2018-12-06T09:06:48.812Z,99.64
2018-12-06T09:10:55.568Z,99.53
2018-12-06T09:15:01.317Z,99.95
2018-12-06T09:19:07.092Z,99.73
2018-12-06T09:23:13.126Z,99.51
2018-12-06T09:27:19.634Z,99.80
2018-12-06T09:31:25.264Z,99.47
2018-12-06T09:35:31.081Z,99.75
2018-12-06T09:39:37.047Z,99.75
2018-12-06T09:43:42.733Z,99.51
2018-12-06T09:47:48.435Z,99.49
2018-12-06T09:51:54.182Z,99.59
2018-12-06T09:55:59.914Z,99.62
2018-12-06T10:00:08.147Z,99.75
2018-12-06T10:04:14.229Z,99.31
2018-12-06T10:08:23.435Z,99.01
2018-12-06T10:12:32.713Z,98.70
2018-12-06T10:16:41.859Z,98.87
2018-12-06T10:20:52.540Z,98.76
2018-12-06T10:25:00.541Z,98.50
2018-12-06T10:29:09.682Z,98.51
2018-12-06T10:33:22.299Z,98.54
2018-12-06T10:37:30.286Z,98.67
2018-12-06T10:41:36.465Z,98.54
2018-12-06T10:45:44.834Z,98.47
2018-12-06T10:49:50.930Z,98.41
2018-12-06T10:54:03.902Z,98.65
2018-12-06T10:58:13.241Z,98.96
2018-12-06T11:02:24.506Z,98.68
2018-12-06T11:06:31.239Z,98.45
2018-12-06T11:10:37.157Z,98.22
2018-12-06T11:14:43.794Z,98.19
2018-12-06T11:18:49.617Z,97.84
2018-12-06T11:22:55.289Z,98.29
2018-12-06T11:27:01.184Z,98.76
2018-12-06T11:31:09.081Z,99.10
2018-12-06T11:35:17.372Z,99.07
2018-12-06T11:39:23.818Z,99.13
2018-12-06T11:43:29.739Z,99.02
2018-12-06T11:47:35.624Z,98.66
2018-12-06T11:51:42.884Z,99.04
2018-12-06T11:55:48.679Z,99.44
2018-12-06T12:00:01.839Z,99.21
2018-12-06T12:04:07.938Z,98.80
2018-12-06T12:08:15.659Z,98.50
2018-12-06T12:12:21.852Z,98.84
2018-12-06T12:16:31.390Z,98.71
2018-12-06T12:20:37.377Z,98.23
2018-12-06T12:24:43.235Z,97.88
2018-12-06T12:28:49.341Z,98.18
2018-12-06T12:32:55.059Z,97.60
2018-12-06T12:37:00.913Z,97.09
2018-12-06T12:41:06.682Z,97.07
2018-12-06T12:45:12.698Z,96.89
2018-12-06T12:49:19.026Z,96.58
2018-12-06T12:53:25.371Z,96.69
2018-12-06T12:57:31.625Z,96.73
2018-12-06T13:01:38.172Z,96.77
2018-12-06T13:05:43.834Z,96.45
2018-12-06T13:09:49.821Z,96.94
2018-12-06T13:13:55.817Z,97.22
2018-12-06T13:18:02.414Z,97.17
2018-12-06T13:22:08.557Z,97.44
2018-12-06T13:26:14.495Z,97.33
2018-12-06T13:30:20.493Z,97.29
2018-12-06T13:34:27.308Z,97.56
2018-12-06T13:38:33.029Z,97.33
2018-12-06T13:42:38.781Z,97.36
2018-12-06T13:46:44.539Z,97.05
2018-12-06T13:50:50.397Z,97.33
2018-12-06T13:54:56.159Z,97.27
2018-12-06T13:59:01.932Z,97.16
2018-12-06T14:03:08.804Z,97.55
2018-12-06T14:07:14.812Z,97.06
2018-12-06T14:11:20.738Z,97.11
2018-12-06T14:15:26.988Z,97.36
2018-12-06T14:19:32.788Z,97.48
2018-12-06T14:23:38.651Z,97.36
2018-12-06T14:27:44.230Z,96.91
2018-12-06T14:31:50.268Z,97.50
2018-12-06T14:35:55.911Z,96.83
2018-12-06T14:40:02.353Z,97.21
2018-12-06T14:44:08.101Z,96.98
2018-12-06T14:48:21.006Z,96.43
2018-12-06T14:52:30.645Z,97.52
2018-12-06T14:56:38.034Z,96.79
2018-12-06T15:00:47.823Z,96.61
2018-12-06T15:04:55.084Z,94.90
2018-12-06T15:09:01.573Z,95.10
2018-12-06T15:13:12.758Z,94.35
2018-12-06T15:17:18.840Z,94.14
2018-12-06T15:21:27.490Z,91.08
2018-12-06T15:25:42.004Z,92.68
2018-12-06T15:29:58.131Z,93.00
2018-12-06T15:34:05.848Z,94.90
2018-12-06T15:38:15.094Z,94.87
2018-12-06T15:42:29.385Z,95.46
2018-12-06T15:46:35.932Z,95.91
2018-12-06T15:50:43.089Z,96.36
2018-12-06T15:54:51.523Z,97.00
2018-12-06T15:59:00.703Z,96.44
2018-12-06T16:03:11.681Z,97.56
2018-12-06T16:07:19.045Z,96.80
2018-12-06T16:11:28.392Z,97.15
2018-12-06T16:15:57.207Z,97.31
2018-12-06T16:20:04.333Z,97.62
2018-12-06T16:24:13.980Z,97.74
2018-12-06T16:28:24.089Z,98.08
2018-12-06T16:32:31.829Z,97.63
2018-12-06T16:36:46.261Z,97.66
2018-12-06T16:41:07.328Z,97.38
2018-12-06T16:45:15.655Z,97.26
2018-12-06T16:49:25.896Z,97.08
2018-12-06T16:53:33.864Z,97.71
2018-12-06T16:57:46.464Z,97.40
2018-12-06T17:01:54.380Z,97.03
2018-12-06T17:06:02.902Z,96.91
2018-12-06T17:10:16.981Z,96.98
2018-12-06T17:14:25.302Z,96.53
2018-12-06T17:18:36.169Z,96.33
2018-12-06T17:22:49.369Z,96.62
2018-12-06T17:26:55.935Z,96.14
2018-12-06T17:31:05.066Z,96.04
2018-12-06T17:35:18.303Z,96.01
2018-12-06T17:39:30.180Z,95.19
2018-12-06T17:43:40.175Z,95.08
2018-12-06T17:47:51.083Z,95.14
2018-12-06T17:52:04.836Z,95.52
2018-12-06T17:56:20.159Z,95.00
2018-12-06T18:00:32.824Z,94.77
2018-12-06T18:04:46.970Z,94.72
2018-12-06T18:08:56.483Z,95.30
2018-12-06T18:13:02.780Z,95.44
2018-12-06T18:17:24.128Z,95.08
2018-12-06T18:21:34.630Z,95.14
2018-12-06T18:25:45.905Z,94.93
2018-12-06T18:29:59.455Z,94.84
2018-12-06T18:34:10.440Z,95.22
2018-12-06T18:38:19.801Z,95.38
2018-12-06T18:42:29.952Z,94.83
2018-12-06T18:46:40.566Z,95.17
2018-12-06T18:50:47.585Z,94.54
2018-12-06T18:54:53.745Z,95.17
2018-12-06T18:58:59.978Z,95.16
2018-12-06T19:03:07.477Z,94.44
2018-12-06T19:07:13.684Z,94.17
2018-12-06T19:11:20.763Z,94.57
2018-12-06T19:15:28.400Z,93.71
2018-12-06T19:19:39.299Z,93.93
2018-12-06T19:23:49.961Z,93.30
2018-12-06T19:27:56.314Z,93.63
2018-12-06T19:32:03.449Z,93.47
2018-12-06T19:36:09.524Z,94.11
2018-12-06T19:40:15.889Z,93.34
2018-12-06T19:44:22.215Z,93.14
2018-12-06T19:48:28.593Z,93.50
2018-12-06T19:52:34.983Z,93.11
2018-12-06T19:56:41.842Z,93.27
2018-12-06T20:00:47.884Z,92.90
2018-12-06T20:11:23.325Z,93.14
2018-12-06T20:15:29.936Z,93.09
2018-12-06T20:19:36.188Z,92.59
2018-12-06T20:23:43.203Z,92.86
2018-12-06T20:27:50.543Z,92.51
2018-12-06T20:31:56.628Z,92.52
2018-12-06T20:36:03.166Z,92.17
2018-12-06T20:40:09.753Z,91.86
2018-12-06T20:44:15.889Z,92.32
2018-12-06T20:48:22.827Z,92.40
2018-12-06T20:52:29.079Z,92.27
2018-12-06T20:56:36.019Z,92.21
2018-12-06T21:00:42.341Z,91.86
2018-12-06T21:04:50.488Z,91.93
2018-12-06T21:08:57.539Z,92.04
2018-12-06T21:13:04.980Z,91.93
2018-12-06T21:17:12.050Z,91.83
2018-12-06T21:21:19.159Z,91.83
2018-12-06T21:25:26.749Z,91.46
2018-12-06T21:29:32.953Z,91.82
2018-12-06T21:33:39.505Z,91.81
2018-12-06T21:37:47.527Z,91.97
2018-12-06T21:41:54.807Z,91.98
2018-12-06T21:46:01.244Z,92.23
2018-12-06T21:50:15.139Z,91.98
2018-12-06T21:58:45.389Z,92.21
2018-12-06T22:02:54.126Z,92.00
2018-12-06T22:07:03.135Z,91.78
2018-12-06T22:11:09.700Z,92.19
2018-12-06T22:15:17.980Z,91.90
2018-12-06T22:19:25.562Z,92.14
2018-12-06T22:23:37.850Z,91.91
2018-12-06T22:27:46.324Z,91.96
2018-12-06T22:31:56.019Z,91.95
2018-12-06T22:36:03.638Z,92.01
2018-12-06T22:40:10.770Z,91.99
2018-12-06T22:44:18.744Z,92.39
2018-12-06T22:48:25.688Z,92.22
2018-12-06T22:52:34.231Z,92.12
2018-12-06T22:56:46.881Z,92.21
2018-12-06T23:01:04.126Z,92.57
2018-12-06T23:05:14.599Z,92.73
2018-12-06T23:09:23.932Z,92.90
2018-12-06T23:13:30.745Z,93.24
2018-12-06T23:17:42.396Z,93.09
2018-12-06T23:21:50.526Z,93.01
2018-12-06T23:25:58.704Z,92.64
2018-12-06T23:30:06.100Z,93.35
2018-12-06T23:34:15.107Z,93.00
2018-12-06T23:38:20.924Z,92.92
2018-12-06T23:42:27.024Z,92.41
2018-12-06T23:46:32.823Z,92.41
2018-12-06T23:50:39.081Z,92.71
2018-12-06T23:54:45.264Z,93.32
2018-12-06T23:58:51.320Z,92.34
